sensor_id;sensor_type;location;lat;lon;timestamp;pressure;altitude;pressure_sealevel;temperature;humidity
81961;BME280;71462;50.650;6.888;2023-07-31T00:00:40;99406.50;;;18.55;51.91
81961;BME280;71462;50.650;6.888;2023-07-31T00:02:42;99416.34;;;18.07;53.39
81961;BME280;71462;50.650;6.888;2023-07-31T00:04:46;99413.69;;;18.35;52.59
81961;BME280;71462;50.650;6.888;2023-07-31T00:06:50;99414.81;;;18.34;52.73
81961;BME280;71462;50.650;6.888;2023-07-31T00:08:51;99403.97;;;18.46;52.50
81961;BME280;71462;50.650;6.888;2023-07-31T00:10:54;99404.56;;;18.27;53.51
81961;BME280;71462;50.650;6.888;2023-07-31T00:12:56;99397.50;;;18.51;52.92
81961;BME280;71462;50.650;6.888;2023-07-31T00:14:59;99398.66;;;18.38;53.17
81961;BME280;71462;50.650;6.888;2023-07-31T00:17:03;99404.63;;;18.15;53.86
81961;BME280;71462;50.650;6.888;2023-07-31T00:19:06;99406.53;;;18.15;53.98
81961;BME280;71462;50.650;6.888;2023-07-31T00:21:10;99406.53;;;18.15;54.29
81961;BME280;71462;50.650;6.888;2023-07-31T00:23:12;99402.34;;;18.17;54.25
81961;BME280;71462;50.650;6.888;2023-07-31T00:25:15;99407.88;;;18.21;54.09
81961;BME280;71462;50.650;6.888;2023-07-31T00:27:17;99410.25;;;18.10;54.31
81961;BME280;71462;50.650;6.888;2023-07-31T00:29:19;99408.31;;;18.23;54.01
81961;BME280;71462;50.650;6.888;2023-07-31T00:31:22;99402.44;;;18.21;54.25
81961;BME280;71462;50.650;6.888;2023-07-31T00:33:24;99403.38;;;18.13;54.47
81961;BME280;71462;50.650;6.888;2023-07-31T00:35:27;99410.66;;;18.24;53.97
81961;BME280;71462;50.650;6.888;2023-07-31T00:37:31;99401.03;;;18.39;53.69
81961;BME280;71462;50.650;6.888;2023-07-31T00:39:34;99408.09;;;18.16;54.16
81961;BME280;71462;50.650;6.888;2023-07-31T00:41:36;99411.91;;;18.27;54.13
81961;BME280;71462;50.650;6.888;2023-07-31T00:43:39;99412.75;;;18.43;53.68
81961;BME280;71462;50.650;6.888;2023-07-31T00:45:41;99421.06;;;18.22;54.31
81961;BME280;71462;50.650;6.888;2023-07-31T00:47:43;99416.97;;;18.28;54.15
81961;BME280;71462;50.650;6.888;2023-07-31T00:49:46;99415.91;;;18.45;53.68
81961;BME280;71462;50.650;6.888;2023-07-31T00:51:50;99416.41;;;18.63;52.89
81961;BME280;71462;50.650;6.888;2023-07-31T00:53:53;99407.56;;;18.38;53.90
81961;BME280;71462;50.650;6.888;2023-07-31T00:55:55;99418.34;;;17.98;55.20
81961;BME280;71462;50.650;6.888;2023-07-31T00:57:58;99411.81;;;18.23;54.41
81961;BME280;71462;50.650;6.888;2023-07-31T01:00:01;99408.91;;;18.16;54.68
81961;BME280;71462;50.650;6.888;2023-07-31T01:02:05;99387.44;;;18.23;54.64
81961;BME280;71462;50.650;6.888;2023-07-31T01:04:08;99389.16;;;18.44;54.01
81961;BME280;71462;50.650;6.888;2023-07-31T01:06:14;99392.34;;;18.46;53.89
81961;BME280;71462;50.650;6.888;2023-07-31T01:08:24;99387.72;;;18.46;53.98
81961;BME280;71462;50.650;6.888;2023-07-31T01:10:38;99387.66;;;18.30;54.35
81961;BME280;71462;50.650;6.888;2023-07-31T01:12:45;99384.50;;;18.28;54.67
81961;BME280;71462;50.650;6.888;2023-07-31T01:14:51;99380.84;;;18.36;54.40
81961;BME280;71462;50.650;6.888;2023-07-31T01:16:54;99383.25;;;18.26;54.42
81961;BME280;71462;50.650;6.888;2023-07-31T01:18:57;99380.31;;;18.31;54.27
81961;BME280;71462;50.650;6.888;2023-07-31T01:21:12;99385.94;;;17.86;55.35
81961;BME280;71462;50.650;6.888;2023-07-31T01:23:40;99384.09;;;18.42;53.99
81961;BME280;71462;50.650;6.888;2023-07-31T01:25:56;99382.16;;;18.55;53.62
81961;BME280;71462;50.650;6.888;2023-07-31T01:28:04;99385.75;;;18.59;53.17
81961;BME280;71462;50.650;6.888;2023-07-31T01:30:10;99387.41;;;18.63;53.31
81961;BME280;71462;50.650;6.888;2023-07-31T01:32:18;99388.38;;;18.71;53.17
81961;BME280;71462;50.650;6.888;2023-07-31T01:34:22;99393.53;;;18.76;53.12
81961;BME280;71462;50.650;6.888;2023-07-31T01:36:24;99391.84;;;18.84;52.70
81961;BME280;71462;50.650;6.888;2023-07-31T01:38:27;99389.59;;;18.86;53.09
81961;BME280;71462;50.650;6.888;2023-07-31T01:40:30;99387.34;;;18.76;53.20
81961;BME280;71462;50.650;6.888;2023-07-31T01:42:34;99391.84;;;18.84;53.15
81961;BME280;71462;50.650;6.888;2023-07-31T01:44:36;99386.00;;;18.82;53.17
81961;BME280;71462;50.650;6.888;2023-07-31T01:46:39;99385.22;;;18.81;52.93
81961;BME280;71462;50.650;6.888;2023-07-31T01:48:42;99382.97;;;18.71;53.15
81961;BME280;71462;50.650;6.888;2023-07-31T01:50:44;99374.72;;;18.52;52.94
81961;BME280;71462;50.650;6.888;2023-07-31T01:52:47;99372.50;;;18.42;53.27
81961;BME280;71462;50.650;6.888;2023-07-31T01:54:53;99366.34;;;18.57;52.87
81961;BME280;71462;50.650;6.888;2023-07-31T01:56:57;99372.50;;;18.42;53.18
81961;BME280;71462;50.650;6.888;2023-07-31T01:59:01;99374.47;;;18.57;53.07
81961;BME280;71462;50.650;6.888;2023-07-31T02:01:03;99367.47;;;18.56;52.86
81961;BME280;71462;50.650;6.888;2023-07-31T02:03:06;99368.34;;;18.60;52.54
81961;BME280;71462;50.650;6.888;2023-07-31T02:05:09;99365.13;;;18.54;52.88
81961;BME280;71462;50.650;6.888;2023-07-31T02:07:12;99367.06;;;18.70;52.00
81961;BME280;71462;50.650;6.888;2023-07-31T02:09:14;99362.06;;;18.56;52.41
81961;BME280;71462;50.650;6.888;2023-07-31T02:11:17;99364.97;;;18.63;52.11
81961;BME280;71462;50.650;6.888;2023-07-31T02:13:20;99361.53;;;18.50;52.54
81961;BME280;71462;50.650;6.888;2023-07-31T02:15:24;99354.88;;;18.48;52.35
81961;BME280;71462;50.650;6.888;2023-07-31T02:17:27;99345.53;;;18.45;52.62
81961;BME280;71462;50.650;6.888;2023-07-31T02:19:30;99348.91;;;18.42;52.68
81961;BME280;71462;50.650;6.888;2023-07-31T02:21:32;99349.38;;;18.44;52.62
81961;BME280;71462;50.650;6.888;2023-07-31T02:23:35;99344.28;;;18.43;52.67
81961;BME280;71462;50.650;6.888;2023-07-31T02:25:37;99349.03;;;18.18;52.94
81961;BME280;71462;50.650;6.888;2023-07-31T02:27:40;99336.22;;;18.30;52.92
81961;BME280;71462;50.650;6.888;2023-07-31T02:29:43;99329.94;;;18.26;52.55
81961;BME280;71462;50.650;6.888;2023-07-31T02:31:47;99331.91;;;18.14;53.15
81961;BME280;71462;50.650;6.888;2023-07-31T02:33:50;99330.34;;;18.13;53.05
81961;BME280;71462;50.650;6.888;2023-07-31T02:35:52;99326.03;;;18.40;52.51
81961;BME280;71462;50.650;6.888;2023-07-31T02:37:55;99329.53;;;18.40;52.33
81961;BME280;71462;50.650;6.888;2023-07-31T02:39:57;99333.16;;;18.60;51.76
81961;BME280;71462;50.650;6.888;2023-07-31T02:42:00;99329.66;;;18.59;51.46
81961;BME280;71462;50.650;6.888;2023-07-31T02:44:03;99322.41;;;18.63;51.30
81961;BME280;71462;50.650;6.888;2023-07-31T02:46:05;99327.66;;;18.28;52.25
81961;BME280;71462;50.650;6.888;2023-07-31T02:48:08;99329.63;;;18.44;52.11
81961;BME280;71462;50.650;6.888;2023-07-31T02:50:11;99328.69;;;18.52;51.72
81961;BME280;71462;50.650;6.888;2023-07-31T02:52:13;99332.88;;;18.49;51.87
81961;BME280;71462;50.650;6.888;2023-07-31T02:54:16;99330.72;;;18.55;51.69
81961;BME280;71462;50.650;6.888;2023-07-31T02:56:18;99326.28;;;18.34;52.25
81961;BME280;71462;50.650;6.888;2023-07-31T02:58:21;99323.75;;;18.26;52.11
81961;BME280;71462;50.650;6.888;2023-07-31T03:00:24;99317.50;;;17.97;52.69
81961;BME280;71462;50.650;6.888;2023-07-31T03:02:26;99312.78;;;17.94;53.18
81961;BME280;71462;50.650;6.888;2023-07-31T03:04:30;99316.03;;;18.12;52.78
81961;BME280;71462;50.650;6.888;2023-07-31T03:06:33;99312.94;;;18.42;51.94
81961;BME280;71462;50.650;6.888;2023-07-31T03:08:34;99308.97;;;18.51;52.02
81961;BME280;71462;50.650;6.888;2023-07-31T03:10:37;99309.50;;;18.29;52.10
81961;BME280;71462;50.650;6.888;2023-07-31T03:12:40;99303.56;;;18.23;52.20
81961;BME280;71462;50.650;6.888;2023-07-31T03:14:42;99304.63;;;18.34;51.99
81961;BME280;71462;50.650;6.888;2023-07-31T03:16:45;99299.63;;;18.49;51.51
81961;BME280;71462;50.650;6.888;2023-07-31T03:18:47;99299.72;;;18.52;51.47
81961;BME280;71462;50.650;6.888;2023-07-31T03:20:51;99293.00;;;18.62;50.99
81961;BME280;71462;50.650;6.888;2023-07-31T03:22:54;99294.56;;;18.63;51.17
81961;BME280;71462;50.650;6.888;2023-07-31T03:24:56;99290.53;;;18.73;50.66
81961;BME280;71462;50.650;6.888;2023-07-31T03:26:58;99295.38;;;18.35;52.17
81961;BME280;71462;50.650;6.888;2023-07-31T03:29:01;99295.09;;;18.25;51.75
81961;BME280;71462;50.650;6.888;2023-07-31T03:31:03;99290.66;;;18.32;51.68
81961;BME280;71462;50.650;6.888;2023-07-31T03:33:06;99289.09;;;18.31;52.08
81961;BME280;71462;50.650;6.888;2023-07-31T03:35:08;99288.78;;;18.49;51.49
81961;BME280;71462;50.650;6.888;2023-07-31T03:37:11;99281.38;;;18.61;50.90
81961;BME280;71462;50.650;6.888;2023-07-31T03:39:14;99279.09;;;18.63;50.80
81961;BME280;71462;50.650;6.888;2023-07-31T03:41:16;99277.09;;;18.76;50.61
81961;BME280;71462;50.650;6.888;2023-07-31T03:43:18;99278.66;;;18.46;51.50
81961;BME280;71462;50.650;6.888;2023-07-31T03:45:21;99273.81;;;18.39;50.99
81961;BME280;71462;50.650;6.888;2023-07-31T03:47:23;99272.25;;;18.38;51.46
81961;BME280;71462;50.650;6.888;2023-07-31T03:49:26;99271.16;;;18.55;51.30
81961;BME280;71462;50.650;6.888;2023-07-31T03:51:28;99262.94;;;18.51;50.96
81961;BME280;71462;50.650;6.888;2023-07-31T03:53:32;99261.81;;;18.68;50.74
81961;BME280;71462;50.650;6.888;2023-07-31T03:55:35;99264.88;;;18.66;50.87
81961;BME280;71462;50.650;6.888;2023-07-31T03:57:37;99261.47;;;18.70;50.48
81961;BME280;71462;50.650;6.888;2023-07-31T03:59:40;99263.38;;;18.53;50.83
81961;BME280;71462;50.650;6.888;2023-07-31T04:01:42;99259.88;;;18.53;51.16
81961;BME280;71462;50.650;6.888;2023-07-31T04:03:45;99259.97;;;18.56;51.23
81961;BME280;71462;50.650;6.888;2023-07-31T04:05:48;99255.78;;;18.59;50.94
81961;BME280;71462;50.650;6.888;2023-07-31T04:07:50;99256.91;;;18.58;50.95
81961;BME280;71462;50.650;6.888;2023-07-31T04:09:55;99254.91;;;18.55;51.12
81961;BME280;71462;50.650;6.888;2023-07-31T04:11:57;99260.53;;;18.78;50.69
81961;BME280;71462;50.650;6.888;2023-07-31T04:14:00;99261.59;;;18.89;50.26
81961;BME280;71462;50.650;6.888;2023-07-31T04:16:03;99272.06;;;18.90;50.07
81961;BME280;71462;50.650;6.888;2023-07-31T04:18:05;99260.00;;;19.04;49.88
81961;BME280;71462;50.650;6.888;2023-07-31T04:20:09;99263.31;;;18.97;49.74
81961;BME280;71462;50.650;6.888;2023-07-31T04:22:12;99259.19;;;18.72;50.18
81961;BME280;71462;50.650;6.888;2023-07-31T04:24:14;99261.75;;;18.80;50.14
81961;BME280;71462;50.650;6.888;2023-07-31T04:26:18;99258.84;;;18.57;50.76
81961;BME280;71462;50.650;6.888;2023-07-31T04:28:21;99261.56;;;18.57;51.29
81961;BME280;71462;50.650;6.888;2023-07-31T04:30:24;99263.66;;;18.80;50.52
81961;BME280;71462;50.650;6.888;2023-07-31T04:32:27;99254.03;;;18.66;50.77
81961;BME280;71462;50.650;6.888;2023-07-31T04:34:31;99264.28;;;18.89;50.18
81961;BME280;71462;50.650;6.888;2023-07-31T04:36:33;99261.22;;;18.90;50.23
81961;BME280;71462;50.650;6.888;2023-07-31T04:38:36;99266.91;;;18.85;50.58
81961;BME280;71462;50.650;6.888;2023-07-31T04:40:39;99266.97;;;19.05;50.00
81961;BME280;71462;50.650;6.888;2023-07-31T04:42:42;99263.78;;;18.83;50.70
81961;BME280;71462;50.650;6.888;2023-07-31T04:44:45;99259.59;;;18.86;50.49
81961;BME280;71462;50.650;6.888;2023-07-31T04:46:47;99262.78;;;19.07;50.20
81961;BME280;71462;50.650;6.888;2023-07-31T04:48:50;99265.31;;;19.16;49.76
81961;BME280;71462;50.650;6.888;2023-07-31T04:50:53;99262.25;;;19.17;49.94
81961;BME280;71462;50.650;6.888;2023-07-31T04:52:55;99264.53;;;19.15;49.87
81961;BME280;71462;50.650;6.888;2023-07-31T04:54:58;99260.69;;;19.01;50.61
81961;BME280;71462;50.650;6.888;2023-07-31T04:57:01;99266.81;;;18.97;50.35
81961;BME280;71462;50.650;6.888;2023-07-31T04:59:04;99249.69;;;19.09;50.54
81961;BME280;71462;50.650;6.888;2023-07-31T05:01:06;99236.50;;;18.92;50.69
81961;BME280;71462;50.650;6.888;2023-07-31T05:03:09;99243.25;;;18.82;51.35
81961;BME280;71462;50.650;6.888;2023-07-31T05:05:13;99240.00;;;18.77;51.48
81961;BME280;71462;50.650;6.888;2023-07-31T05:07:16;99232.72;;;18.65;51.50
81961;BME280;71462;50.650;6.888;2023-07-31T05:09:19;99219.28;;;18.68;51.70
81961;BME280;71462;50.650;6.888;2023-07-31T05:11:21;99226.88;;;18.79;51.97
81961;BME280;71462;50.650;6.888;2023-07-31T05:13:24;99226.03;;;18.90;51.27
81961;BME280;71462;50.650;6.888;2023-07-31T05:15:28;99220.53;;;18.87;51.51
81961;BME280;71462;50.650;6.888;2023-07-31T05:17:31;99222.59;;;18.93;51.14
81961;BME280;71462;50.650;6.888;2023-07-31T05:19:33;99217.03;;;18.86;51.70
81961;BME280;71462;50.650;6.888;2023-07-31T05:21:36;99222.25;;;18.79;51.67
81961;BME280;71462;50.650;6.888;2023-07-31T05:23:38;99216.41;;;18.93;51.22
81961;BME280;71462;50.650;6.888;2023-07-31T05:25:41;99223.22;;;18.87;51.21
81961;BME280;71462;50.650;6.888;2023-07-31T05:27:43;99221.38;;;18.91;51.86
81961;BME280;71462;50.650;6.888;2023-07-31T05:29:46;99217.63;;;18.80;51.70
81961;BME280;71462;50.650;6.888;2023-07-31T05:31:50;99222.25;;;18.79;51.70
81961;BME280;71462;50.650;6.888;2023-07-31T05:33:53;99218.41;;;19.12;51.06
81961;BME280;71462;50.650;6.888;2023-07-31T05:35:55;99220.97;;;19.24;50.69
81961;BME280;71462;50.650;6.888;2023-07-31T05:37:58;99213.16;;;19.38;50.26
81961;BME280;71462;50.650;6.888;2023-07-31T05:40:00;99208.78;;;19.34;50.33
81961;BME280;71462;50.650;6.888;2023-07-31T05:42:04;99210.84;;;19.21;50.81
81961;BME280;71462;50.650;6.888;2023-07-31T05:44:06;99201.72;;;19.29;50.39
81961;BME280;71462;50.650;6.888;2023-07-31T05:46:09;99209.19;;;18.81;51.13
81961;BME280;71462;50.650;6.888;2023-07-31T05:48:12;99211.69;;;18.90;51.39
81961;BME280;71462;50.650;6.888;2023-07-31T05:50:15;99201.81;;;18.66;51.90
81961;BME280;71462;50.650;6.888;2023-07-31T05:52:20;99191.41;;;18.68;51.79
81961;BME280;71462;50.650;6.888;2023-07-31T05:54:22;99197.72;;;18.56;52.36
81961;BME280;71462;50.650;6.888;2023-07-31T05:56:25;99196.94;;;18.56;52.50
81961;BME280;71462;50.650;6.888;2023-07-31T05:58:28;99200.59;;;18.48;52.50
81961;BME280;71462;50.650;6.888;2023-07-31T06:00:31;99188.72;;;18.36;52.90
81961;BME280;71462;50.650;6.888;2023-07-31T06:02:33;99186.88;;;18.25;53.05
81961;BME280;71462;50.650;6.888;2023-07-31T06:04:39;99188.19;;;18.15;53.60
81961;BME280;71462;50.650;6.888;2023-07-31T06:06:42;99190.88;;;17.87;55.58
81961;BME280;71462;50.650;6.888;2023-07-31T06:08:45;99191.22;;;17.86;56.72
81961;BME280;71462;50.650;6.888;2023-07-31T06:10:47;99193.00;;;17.94;57.72
81961;BME280;71462;50.650;6.888;2023-07-31T06:12:50;99191.25;;;18.01;58.06
81961;BME280;71462;50.650;6.888;2023-07-31T06:14:53;99185.81;;;18.29;57.02
81961;BME280;71462;50.650;6.888;2023-07-31T06:16:55;99183.72;;;18.23;57.46
81961;BME280;71462;50.650;6.888;2023-07-31T06:18:58;99190.47;;;18.01;57.81
81961;BME280;71462;50.650;6.888;2023-07-31T06:21:02;99180.44;;;18.01;58.35
81961;BME280;71462;50.650;6.888;2023-07-31T06:23:04;99173.00;;;17.98;57.61
81961;BME280;71462;50.650;6.888;2023-07-31T06:25:07;99168.81;;;18.13;57.85
81961;BME280;71462;50.650;6.888;2023-07-31T06:27:14;99166.91;;;18.01;58.17
81961;BME280;71462;50.650;6.888;2023-07-31T06:29:17;99168.06;;;17.72;57.99
81961;BME280;71462;50.650;6.888;2023-07-31T06:31:19;99171.59;;;17.89;57.66
81961;BME280;71462;50.650;6.888;2023-07-31T06:33:24;99166.34;;;18.08;57.37
81961;BME280;71462;50.650;6.888;2023-07-31T06:35:27;99167.34;;;17.88;58.09
81961;BME280;71462;50.650;6.888;2023-07-31T06:37:31;99163.00;;;17.71;57.87
81961;BME280;71462;50.650;6.888;2023-07-31T06:39:37;99162.47;;;17.65;57.01
81961;BME280;71462;50.650;6.888;2023-07-31T06:41:43;99152.41;;;17.50;58.06
81961;BME280;71462;50.650;6.888;2023-07-31T06:43:46;99149.53;;;17.19;58.28
81961;BME280;71462;50.650;6.888;2023-07-31T06:45:49;99148.31;;;17.28;59.27
81961;BME280;71462;50.650;6.888;2023-07-31T06:47:53;99151.56;;;17.62;58.57
81961;BME280;71462;50.650;6.888;2023-07-31T06:49:55;99153.03;;;17.59;57.57
81961;BME280;71462;50.650;6.888;2023-07-31T06:51:58;99147.72;;;17.91;57.55
81961;BME280;71462;50.650;6.888;2023-07-31T06:54:02;99147.38;;;17.64;58.33
81961;BME280;71462;50.650;6.888;2023-07-31T06:56:05;99153.31;;;17.70;57.68
81961;BME280;71462;50.650;6.888;2023-07-31T06:58:07;99160.34;;;17.87;57.41
81961;BME280;71462;50.650;6.888;2023-07-31T07:00:11;99154.44;;;17.97;56.07
81961;BME280;71462;50.650;6.888;2023-07-31T07:02:12;99161.81;;;18.12;55.71
81961;BME280;71462;50.650;6.888;2023-07-31T07:04:15;99147.97;;;18.01;56.28
81961;BME280;71462;50.650;6.888;2023-07-31T07:06:18;99156.09;;;18.01;54.74
81961;BME280;71462;50.650;6.888;2023-07-31T07:08:20;99158.13;;;17.77;56.60
81961;BME280;71462;50.650;6.888;2023-07-31T07:10:27;99151.84;;;17.72;55.31
81961;BME280;71462;50.650;6.888;2023-07-31T07:12:31;99148.13;;;17.49;55.67
81961;BME280;71462;50.650;6.888;2023-07-31T07:14:33;99134.22;;;17.35;55.96
81961;BME280;71462;50.650;6.888;2023-07-31T07:16:36;99136.47;;;17.61;55.10
81961;BME280;71462;50.650;6.888;2023-07-31T07:18:39;99139.59;;;17.91;55.54
81961;BME280;71462;50.650;6.888;2023-07-31T07:21:02;99140.91;;;17.81;54.92
81961;BME280;71462;50.650;6.888;2023-07-31T07:23:04;99140.56;;;17.83;56.38
81961;BME280;71462;50.650;6.888;2023-07-31T07:25:07;99144.91;;;17.87;55.88
81961;BME280;71462;50.650;6.888;2023-07-31T07:27:11;99136.03;;;17.87;55.66
81961;BME280;71462;50.650;6.888;2023-07-31T07:29:14;99144.41;;;17.97;55.48
81961;BME280;71462;50.650;6.888;2023-07-31T07:31:17;99144.31;;;17.94;55.41
81961;BME280;71462;50.650;6.888;2023-07-31T07:33:19;99144.59;;;18.04;55.25
81961;BME280;71462;50.650;6.888;2023-07-31T07:35:21;99137.56;;;18.31;54.05
81961;BME280;71462;50.650;6.888;2023-07-31T07:37:24;99139.06;;;18.01;54.71
81961;BME280;71462;50.650;6.888;2023-07-31T07:39:27;99148.66;;;18.26;53.91
81961;BME280;71462;50.650;6.888;2023-07-31T07:41:29;99144.91;;;18.47;53.38
81961;BME280;71462;50.650;6.888;2023-07-31T07:43:32;99146.28;;;18.56;53.15
81961;BME280;71462;50.650;6.888;2023-07-31T07:45:35;99154.16;;;18.46;53.10
81961;BME280;71462;50.650;6.888;2023-07-31T07:47:37;99145.28;;;18.80;53.11
81961;BME280;71462;50.650;6.888;2023-07-31T07:49:40;99156.31;;;18.87;53.34
81961;BME280;71462;50.650;6.888;2023-07-31T07:51:48;99146.16;;;18.68;55.04
81961;BME280;71462;50.650;6.888;2023-07-31T07:53:51;99142.50;;;18.61;54.46
81961;BME280;71462;50.650;6.888;2023-07-31T07:55:54;99151.25;;;18.86;54.25
81961;BME280;71462;50.650;6.888;2023-07-31T07:57:56;99146.19;;;18.84;54.36
81961;BME280;71462;50.650;6.888;2023-07-31T08:00:00;99145.53;;;18.75;55.62
81961;BME280;71462;50.650;6.888;2023-07-31T08:02:04;99136.50;;;19.03;55.27
81961;BME280;71462;50.650;6.888;2023-07-31T08:04:05;99143.13;;;18.86;55.02
81961;BME280;71462;50.650;6.888;2023-07-31T08:06:08;99135.06;;;18.74;55.01
81961;BME280;71462;50.650;6.888;2023-07-31T08:08:14;99131.84;;;18.68;55.07
81961;BME280;71462;50.650;6.888;2023-07-31T08:10:17;99141.41;;;18.97;55.09
81961;BME280;71462;50.650;6.888;2023-07-31T08:12:20;99129.75;;;19.12;54.82
81961;BME280;71462;50.650;6.888;2023-07-31T08:14:22;99130.34;;;18.71;54.94
81961;BME280;71462;50.650;6.888;2023-07-31T08:16:26;99125.44;;;18.76;54.41
81961;BME280;71462;50.650;6.888;2023-07-31T08:18:28;99121.38;;;18.82;56.12
81961;BME280;71462;50.650;6.888;2023-07-31T08:20:31;99132.38;;;18.89;54.71
81961;BME280;71462;50.650;6.888;2023-07-31T08:22:34;99118.53;;;18.94;55.22
81961;BME280;71462;50.650;6.888;2023-07-31T08:24:36;99118.88;;;18.93;54.17
81961;BME280;71462;50.650;6.888;2023-07-31T08:26:39;99125.91;;;18.78;53.90
81961;BME280;71462;50.650;6.888;2023-07-31T08:28:42;99119.00;;;18.65;53.94
81961;BME280;71462;50.650;6.888;2023-07-31T08:30:45;99110.19;;;18.84;53.57
81961;BME280;71462;50.650;6.888;2023-07-31T08:32:49;99112.53;;;18.85;53.70
81961;BME280;71462;50.650;6.888;2023-07-31T08:34:51;99103.44;;;18.93;53.35
81961;BME280;71462;50.650;6.888;2023-07-31T08:36:54;99100.84;;;18.81;53.98
81961;BME280;71462;50.650;6.888;2023-07-31T08:38:56;99096.78;;;18.91;53.72
81961;BME280;71462;50.650;6.888;2023-07-31T08:40:59;99095.72;;;18.95;53.78
81961;BME280;71462;50.650;6.888;2023-07-31T08:43:01;99097.22;;;18.93;53.34
81961;BME280;71462;50.650;6.888;2023-07-31T08:45:04;99106.06;;;18.74;53.76
81961;BME280;71462;50.650;6.888;2023-07-31T08:47:07;99096.38;;;18.73;53.58
81961;BME280;71462;50.650;6.888;2023-07-31T08:49:12;99099.47;;;18.56;53.77
81961;BME280;71462;50.650;6.888;2023-07-31T08:51:14;99084.50;;;18.78;53.18
81961;BME280;71462;50.650;6.888;2023-07-31T08:53:17;99089.94;;;18.62;52.88
81961;BME280;71462;50.650;6.888;2023-07-31T08:55:20;99085.66;;;18.61;52.84
81961;BME280;71462;50.650;6.888;2023-07-31T08:57:25;99088.16;;;18.70;52.49
81961;BME280;71462;50.650;6.888;2023-07-31T08:59:31;99083.97;;;18.72;51.72
81961;BME280;71462;50.650;6.888;2023-07-31T09:01:36;99090.94;;;18.73;51.94
81961;BME280;71462;50.650;6.888;2023-07-31T09:03:41;99094.50;;;18.42;52.70
81961;BME280;71462;50.650;6.888;2023-07-31T09:05:47;99090.28;;;18.60;52.07
81961;BME280;71462;50.650;6.888;2023-07-31T09:07:50;99093.06;;;18.80;51.70
81961;BME280;71462;50.650;6.888;2023-07-31T09:09:54;99095.97;;;18.55;50.63
81961;BME280;71462;50.650;6.888;2023-07-31T09:11:57;99094.38;;;18.19;52.28
81961;BME280;71462;50.650;6.888;2023-07-31T09:14:00;99091.03;;;18.26;52.37
81961;BME280;71462;50.650;6.888;2023-07-31T09:16:09;99090.75;;;18.47;52.19
81961;BME280;71462;50.650;6.888;2023-07-31T09:18:12;99092.41;;;18.35;52.05
81961;BME280;71462;50.650;6.888;2023-07-31T09:20:17;99098.53;;;18.48;51.37
81961;BME280;71462;50.650;6.888;2023-07-31T09:22:31;99094.72;;;19.04;51.35
81961;BME280;71462;50.650;6.888;2023-07-31T09:24:37;99098.81;;;18.27;51.69
81961;BME280;71462;50.650;6.888;2023-07-31T09:26:39;99089.63;;;18.48;50.83
81961;BME280;71462;50.650;6.888;2023-07-31T09:28:42;99089.88;;;17.95;52.48
81961;BME280;71462;50.650;6.888;2023-07-31T09:30:48;99092.25;;;18.28;51.46
81961;BME280;71462;50.650;6.888;2023-07-31T09:32:52;99084.72;;;18.38;50.86
81961;BME280;71462;50.650;6.888;2023-07-31T09:35:13;99075.69;;;18.65;50.24
81961;BME280;71462;50.650;6.888;2023-07-31T09:37:16;99086.84;;;18.44;50.19
81961;BME280;71462;50.650;6.888;2023-07-31T09:39:20;99077.97;;;18.63;49.70
81961;BME280;71462;50.650;6.888;2023-07-31T09:41:23;99083.09;;;18.84;50.12
81961;BME280;71462;50.650;6.888;2023-07-31T09:43:25;99076.19;;;18.35;50.78
81961;BME280;71462;50.650;6.888;2023-07-31T09:45:29;99071.34;;;18.60;50.80
81961;BME280;71462;50.650;6.888;2023-07-31T09:47:46;99073.63;;;18.58;50.47
81961;BME280;71462;50.650;6.888;2023-07-31T09:49:49;99064.69;;;18.23;51.23
81961;BME280;71462;50.650;6.888;2023-07-31T09:51:55;99075.94;;;18.09;51.49
81961;BME280;71462;50.650;6.888;2023-07-31T09:53:57;99069.00;;;18.59;51.48
81961;BME280;71462;50.650;6.888;2023-07-31T09:56:02;99064.84;;;19.00;51.32
81961;BME280;71462;50.650;6.888;2023-07-31T09:58:06;99073.50;;;19.44;50.65
81961;BME280;71462;50.650;6.888;2023-07-31T10:00:10;99071.47;;;19.41;48.69
81961;BME280;71462;50.650;6.888;2023-07-31T10:02:15;99068.06;;;19.44;49.02
81961;BME280;71462;50.650;6.888;2023-07-31T10:04:28;99065.28;;;19.60;48.78
81961;BME280;71462;50.650;6.888;2023-07-31T10:06:33;99065.78;;;19.88;48.50
81961;BME280;71462;50.650;6.888;2023-07-31T10:08:37;99069.09;;;19.78;48.68
81961;BME280;71462;50.650;6.888;2023-07-31T10:10:41;99066.78;;;20.03;48.07
81961;BME280;71462;50.650;6.888;2023-07-31T10:12:48;99067.03;;;20.17;48.08
81961;BME280;71462;50.650;6.888;2023-07-31T10:14:52;99063.22;;;20.22;49.00
81961;BME280;71462;50.650;6.888;2023-07-31T10:16:57;99046.44;;;19.90;47.61
81961;BME280;71462;50.650;6.888;2023-07-31T10:18:59;99046.41;;;19.25;48.90
81961;BME280;71462;50.650;6.888;2023-07-31T10:21:02;99046.19;;;18.95;50.56
81961;BME280;71462;50.650;6.888;2023-07-31T10:23:06;99048.44;;;19.32;49.10
81961;BME280;71462;50.650;6.888;2023-07-31T10:25:09;99048.72;;;19.88;47.96
81961;BME280;71462;50.650;6.888;2023-07-31T10:27:12;99045.56;;;20.32;48.13
81961;BME280;71462;50.650;6.888;2023-07-31T10:29:16;99042.19;;;20.68;46.61
81961;BME280;71462;50.650;6.888;2023-07-31T10:31:20;99036.91;;;20.49;47.57
81961;BME280;71462;50.650;6.888;2023-07-31T10:33:23;99033.81;;;20.80;46.93
81961;BME280;71462;50.650;6.888;2023-07-31T10:35:27;99043.91;;;21.10;46.94
81961;BME280;71462;50.650;6.888;2023-07-31T10:37:35;99036.28;;;20.93;45.86
81961;BME280;71462;50.650;6.888;2023-07-31T10:39:38;99041.16;;;21.06;46.40
81961;BME280;71462;50.650;6.888;2023-07-31T10:41:41;99050.56;;;20.56;46.76
81961;BME280;71462;50.650;6.888;2023-07-31T10:43:45;99051.78;;;20.09;47.86
81961;BME280;71462;50.650;6.888;2023-07-31T10:45:49;99058.28;;;19.59;49.20
81961;BME280;71462;50.650;6.888;2023-07-31T10:47:58;99061.97;;;19.93;49.02
81961;BME280;71462;50.650;6.888;2023-07-31T10:50:13;99070.00;;;19.86;48.85
81961;BME280;71462;50.650;6.888;2023-07-31T10:52:20;99056.00;;;19.84;48.16
81961;BME280;71462;50.650;6.888;2023-07-31T10:54:28;99061.34;;;19.38;49.80